sensor_id;sensor_type;location;lat;lon;timestamp;pressure;altitude;pressure_sealevel;temperature;humidity
13734;BME280;43298;52.560;13.508;2023-01-30T00:01:27;100723.59;;;2.32;100.00
13734;BME280;43298;52.560;13.508;2023-01-30T00:03:53;100727.00;;;2.31;100.00
13734;BME280;43298;52.560;13.508;2023-01-30T00:06:19;100715.91;;;2.35;100.00
13734;BME280;43298;52.560;13.508;2023-01-30T00:08:46;100704.03;;;2.31;100.00
13734;BME280;43298;52.560;13.508;2023-01-30T00:11:15;100698.06;;;2.33;100.00
13734;BME280;43298;52.560;13.508;2023-01-30T00:13:41;100689.56;;;2.33;100.00
13734;BME280;43298;52.560;13.508;2023-01-30T00:16:08;100684.47;;;2.31;100.00
13734;BME280;43298;52.560;13.508;2023-01-30T00:18:35;100671.72;;;2.31;100.00
13734;BME280;43298;52.560;13.508;2023-01-30T00:21:04;100681.09;;;2.29;100.00
13734;BME280;43298;52.560;13.508;2023-01-30T00:23:34;100665.78;;;2.31;100.00
13734;BME280;43298;52.560;13.508;2023-01-30T00:26:00;100665.78;;;2.31;100.00
13734;BME280;43298;52.560;13.508;2023-01-30T00:28:26;100649.63;;;2.30;100.00
13734;BME280;43298;52.560;13.508;2023-01-30T00:30:54;100639.38;;;2.36;100.00
13734;BME280;43298;52.560;13.508;2023-01-30T00:33:21;100631.72;;;2.36;100.00
13734;BME280;43298;52.560;13.508;2023-01-30T00:35:49;100620.66;;;2.34;100.00
13734;BME280;43298;52.560;13.508;2023-01-30T00:38:16;100611.31;;;2.36;100.00
13734;BME280;43298;52.560;13.508;2023-01-30T00:40:43;100599.41;;;2.37;100.00
13734;BME280;43298;52.560;13.508;2023-01-30T00:43:13;100567.06;;;2.37;100.00
13734;BME280;43298;52.560;13.508;2023-01-30T00:45:58;100588.34;;;2.36;100.00
13734;BME280;43298;52.560;13.508;2023-01-30T00:48:43;100556.88;;;2.36;100.00
13734;BME280;43298;52.560;13.508;2023-01-30T00:51:09;100544.97;;;2.36;100.00
13734;BME280;43298;52.560;13.508;2023-01-30T00:53:35;100543.31;;;2.34;100.00
13734;BME280;43298;52.560;13.508;2023-01-30T00:56:01;100537.34;;;2.33;100.00
13734;BME280;43298;52.560;13.508;2023-01-30T00:58:27;100522.94;;;2.29;100.00
13734;BME280;43298;52.560;13.508;2023-01-30T01:00:53;100530.66;;;2.25;100.00
13734;BME280;43298;52.560;13.508;2023-01-30T01:03:19;100535.75;;;2.23;100.00
13734;BME280;43298;52.560;13.508;2023-01-30T01:05:45;100535.78;;;2.20;100.00
13734;BME280;43298;52.560;13.508;2023-01-30T01:08:11;100525.59;;;2.20;100.00
13734;BME280;43298;52.560;13.508;2023-01-30T01:10:37;100532.41;;;2.20;100.00
13734;BME280;43298;52.560;13.508;2023-01-30T01:13:03;100517.13;;;2.18;100.00
13734;BME280;43298;52.560;13.508;2023-01-30T01:15:32;100502.66;;;2.19;100.00
13734;BME280;43298;52.560;13.508;2023-01-30T01:17:58;100507.75;;;2.19;100.00
13734;BME280;43298;52.560;13.508;2023-01-30T01:20:24;100465.25;;;2.18;100.00
13734;BME280;43298;52.560;13.508;2023-01-30T01:22:56;100436.41;;;2.16;100.00
13734;BME280;43298;52.560;13.508;2023-01-30T01:25:24;100443.19;;;2.15;100.00
13734;BME280;43298;52.560;13.508;2023-01-30T01:27:50;100446.66;;;2.11;100.00
13734;BME280;43298;52.560;13.508;2023-01-30T01:30:18;100445.00;;;2.07;100.00
13734;BME280;43298;52.560;13.508;2023-01-30T01:32:44;100439.91;;;2.09;100.00
13734;BME280;43298;52.560;13.508;2023-01-30T01:35:10;100439.06;;;2.05;100.00
13734;BME280;43298;52.560;13.508;2023-01-30T01:37:36;100438.19;;;2.06;100.00
13734;BME280;43298;52.560;13.508;2023-01-30T01:40:04;100429.72;;;2.06;100.00
13734;BME280;43298;52.560;13.508;2023-01-30T01:42:48;100439.06;;;2.05;100.00
13734;BME280;43298;52.560;13.508;2023-01-30T01:45:21;100461.16;;;2.06;100.00
13734;BME280;43298;52.560;13.508;2023-01-30T01:53:07;100448.38;;;2.09;100.00
13734;BME280;43298;52.560;13.508;2023-01-30T01:55:36;100450.88;;;2.14;100.00
13734;BME280;43298;52.560;13.508;2023-01-30T02:00:48;100425.41;;;2.09;100.00
13734;BME280;43298;52.560;13.508;2023-01-30T02:03:21;100404.19;;;2.09;100.00
13734;BME280;43298;52.560;13.508;2023-01-30T02:05:52;100405.97;;;2.01;100.00
13734;BME280;43298;52.560;13.508;2023-01-30T02:08:39;100378.91;;;1.92;100.00
13734;BME280;43298;52.560;13.508;2023-01-30T02:13:49;100347.69;;;1.75;100.00
13734;BME280;43298;52.560;13.508;2023-01-30T02:16:16;100350.28;;;1.71;100.00
13734;BME280;43298;52.560;13.508;2023-01-30T02:18:42;100334.97;;;1.74;100.00
13734;BME280;43298;52.560;13.508;2023-01-30T02:24:37;100312.06;;;1.72;100.00
13734;BME280;43298;52.560;13.508;2023-01-30T02:37:36;100285.56;;;1.85;100.00
13734;BME280;43298;52.560;13.508;2023-01-30T02:40:48;100280.44;;;1.85;100.00
13734;BME280;43298;52.560;13.508;2023-01-30T02:49:39;100263.72;;;1.65;100.00
13734;BME280;43298;52.560;13.508;2023-01-30T02:52:08;100252.78;;;1.58;100.00
13734;BME280;43298;52.560;13.508;2023-01-30T02:54:36;100246.09;;;1.50;100.00
13734;BME280;43298;52.560;13.508;2023-01-30T02:57:01;100239.31;;;1.50;100.00
13734;BME280;43298;52.560;13.508;2023-01-30T02:59:41;100226.50;;;1.55;100.00
13734;BME280;43298;52.560;13.508;2023-01-30T03:07:48;100193.47;;;1.49;100.00
13734;BME280;43298;52.560;13.508;2023-01-30T03:16:30;100173.81;;;1.57;100.00
13734;BME280;43298;52.560;13.508;2023-01-30T03:19:00;100166.06;;;1.66;100.00
13734;BME280;43298;52.560;13.508;2023-01-30T03:21:27;100167.72;;;1.68;100.00
13734;BME280;43298;52.560;13.508;2023-01-30T03:23:52;100161.75;;;1.69;100.00
13734;BME280;43298;52.560;13.508;2023-01-30T03:26:30;100162.41;;;1.80;100.00
13734;BME280;43298;52.560;13.508;2023-01-30T03:28:57;100162.44;;;1.79;100.00
13734;BME280;43298;52.560;13.508;2023-01-30T03:31:24;100164.03;;;1.86;100.00
13734;BME280;43298;52.560;13.508;2023-01-30T03:33:50;100162.25;;;1.92;100.00
13734;BME280;43298;52.560;13.508;2023-01-30T03:36:16;100154.69;;;1.86;100.00
13734;BME280;43298;52.560;13.508;2023-01-30T03:38:42;100150.47;;;1.85;100.00
13734;BME280;43298;52.560;13.508;2023-01-30T03:41:07;100165.63;;;1.91;100.00
13734;BME280;43298;52.560;13.508;2023-01-30T03:43:33;100148.63;;;1.93;100.00
13734;BME280;43298;52.560;13.508;2023-01-30T03:45:59;100140.16;;;1.90;100.00
13734;BME280;43298;52.560;13.508;2023-01-30T03:48:25;100136.75;;;1.92;100.00
13734;BME280;43298;52.560;13.508;2023-01-30T03:50:51;100124.72;;;2.00;100.00
13734;BME280;43298;52.560;13.508;2023-01-30T03:53:17;100121.34;;;1.98;100.00
13734;BME280;43298;52.560;13.508;2023-01-30T03:55:45;100120.56;;;1.95;100.00
13734;BME280;43298;52.560;13.508;2023-01-30T03:58:11;100109.50;;;1.94;100.00
13734;BME280;43298;52.560;13.508;2023-01-30T04:00:37;100101.13;;;1.89;100.00
13734;BME280;43298;52.560;13.508;2023-01-30T04:03:02;100096.03;;;1.88;100.00
13734;BME280;43298;52.560;13.508;2023-01-30T04:05:28;100089.19;;;1.90;100.00
13734;BME280;43298;52.560;13.508;2023-01-30T04:07:57;100088.28;;;1.94;100.00
13734;BME280;43298;52.560;13.508;2023-01-30T04:10:24;100084.75;;;2.01;100.00
13734;BME280;43298;52.560;13.508;2023-01-30T04:12:51;100071.94;;;2.05;100.00
13734;BME280;43298;52.560;13.508;2023-01-30T04:15:17;100063.41;;;2.06;100.00
13734;BME280;43298;52.560;13.508;2023-01-30T04:17:43;100065.06;;;2.10;100.00
13734;BME280;43298;52.560;13.508;2023-01-30T04:20:09;100059.06;;;2.13;100.00
13734;BME280;43298;52.560;13.508;2023-01-30T04:22:35;100053.97;;;2.11;100.00
13734;BME280;43298;52.560;13.508;2023-01-30T04:25:02;100065.81;;;2.14;100.00
13734;BME280;43298;52.560;13.508;2023-01-30T04:27:28;100058.78;;;2.26;100.00
13734;BME280;43298;52.560;13.508;2023-01-30T04:29:54;100061.28;;;2.29;100.00
13734;BME280;43298;52.560;13.508;2023-01-30T04:32:19;100045.00;;;2.36;100.00
13734;BME280;43298;52.560;13.508;2023-01-30T04:34:45;100056.72;;;2.45;100.00
13734;BME280;43298;52.560;13.508;2023-01-30T04:37:11;100045.69;;;2.43;100.00
13734;BME280;43298;52.560;13.508;2023-01-30T04:39:37;100040.56;;;2.44;100.00
13734;BME280;43298;52.560;13.508;2023-01-30T04:42:03;100043.03;;;2.49;100.00
13734;BME280;43298;52.560;13.508;2023-01-30T04:44:29;100029.41;;;2.50;100.00
13734;BME280;43298;52.560;13.508;2023-01-30T04:46:55;100037.81;;;2.55;100.00
13734;BME280;43298;52.560;13.508;2023-01-30T04:49:21;100032.72;;;2.55;100.00
13734;BME280;43298;52.560;13.508;2023-01-30T04:51:47;100024.25;;;2.51;100.00
13734;BME280;43298;52.560;13.508;2023-01-30T04:54:12;100014.88;;;2.53;100.00
13734;BME280;43298;52.560;13.508;2023-01-30T04:56:38;100012.53;;;2.43;100.00
13734;BME280;43298;52.560;13.508;2023-01-30T04:59:04;100012.56;;;2.41;100.00
13734;BME280;43298;52.560;13.508;2023-01-30T05:01:36;100006.63;;;2.41;100.00
13734;BME280;43298;52.560;13.508;2023-01-30T05:04:03;100001.66;;;2.35;100.00
13734;BME280;43298;52.560;13.508;2023-01-30T05:06:31;100000.94;;;2.28;100.00
13734;BME280;43298;52.560;13.508;2023-01-30T05:08:57;100000.19;;;2.23;100.00
13734;BME280;43298;52.560;13.508;2023-01-30T05:11:26;99995.22;;;2.17;100.00
13734;BME280;43298;52.560;13.508;2023-01-30T05:13:53;99989.31;;;2.14;100.00
13734;BME280;43298;52.560;13.508;2023-01-30T05:16:20;99988.56;;;2.10;100.00
13734;BME280;43298;52.560;13.508;2023-01-30T05:18:47;99981.69;;;2.14;100.00
13734;BME280;43298;52.560;13.508;2023-01-30T05:21:20;99975.72;;;2.13;100.00
13734;BME280;43298;52.560;13.508;2023-01-30T05:23:47;99967.31;;;2.10;100.00
13734;BME280;43298;52.560;13.508;2023-01-30T05:26:13;99959.63;;;2.13;100.00
13734;BME280;43298;52.560;13.508;2023-01-30T05:28:40;99973.19;;;2.13;100.00
13734;BME280;43298;52.560;13.508;2023-01-30T05:31:12;99951.97;;;2.13;100.00
13734;BME280;43298;52.560;13.508;2023-01-30T05:33:39;99941.72;;;2.14;100.00
13734;BME280;43298;52.560;13.508;2023-01-30T05:36:06;99945.97;;;2.14;100.00
13734;BME280;43298;52.560;13.508;2023-01-30T05:38:32;99946.84;;;2.14;100.00
13734;BME280;43298;52.560;13.508;2023-01-30T05:41:04;99931.53;;;2.14;100.00
13734;BME280;43298;52.560;13.508;2023-01-30T05:43:32;99933.22;;;2.14;100.00
13734;BME280;43298;52.560;13.508;2023-01-30T05:46:00;99922.19;;;2.13;100.00
13734;BME280;43298;52.560;13.508;2023-01-30T05:48:27;99920.47;;;2.15;100.00
13734;BME280;43298;52.560;13.508;2023-01-30T05:50:55;99919.59;;;2.15;100.00
13734;BME280;43298;52.560;13.508;2023-01-30T05:53:23;99905.16;;;2.15;100.00
13734;BME280;43298;52.560;13.508;2023-01-30T05:56:02;99898.38;;;2.14;100.00
13734;BME280;43298;52.560;13.508;2023-01-30T05:58:28;99894.16;;;2.12;100.00
13734;BME280;43298;52.560;13.508;2023-01-30T06:01:03;99890.69;;;2.17;100.00
13734;BME280;43298;52.560;13.508;2023-01-30T06:03:29;99882.16;;;2.18;100.00
13734;BME280;43298;52.560;13.508;2023-01-30T06:05:55;99888.13;;;2.17;100.00
13734;BME280;43298;52.560;13.508;2023-01-30T06:08:21;99877.06;;;2.18;100.00
13734;BME280;43298;52.560;13.508;2023-01-30T06:10:47;99881.22;;;2.22;100.00
13734;BME280;43298;52.560;13.508;2023-01-30T06:13:12;99874.28;;;2.27;100.00
13734;BME280;43298;52.560;13.508;2023-01-30T06:15:38;99883.50;;;2.33;100.00
13734;BME280;43298;52.560;13.508;2023-01-30T06:18:04;99874.97;;;2.35;100.00
13734;BME280;43298;52.560;13.508;2023-01-30T06:20:30;99871.44;;;2.41;100.00
13734;BME280;43298;52.560;13.508;2023-01-30T06:22:56;99879.13;;;2.39;100.00
13734;BME280;43298;52.560;13.508;2023-01-30T06:25:22;99877.22;;;2.47;100.00
13734;BME280;43298;52.560;13.508;2023-01-30T06:27:47;99878.97;;;2.45;100.00
13734;BME280;43298;52.560;13.508;2023-01-30T06:30:13;99871.25;;;2.48;100.00
13734;BME280;43298;52.560;13.508;2023-01-30T06:32:39;99867.75;;;2.52;100.00
13734;BME280;43298;52.560;13.508;2023-01-30T06:35:07;99883.00;;;2.55;100.00
13734;BME280;43298;52.560;13.508;2023-01-30T06:37:33;99869.25;;;2.61;100.00
13734;BME280;43298;52.560;13.508;2023-01-30T06:39:59;99877.72;;;2.63;100.00
13734;BME280;43298;52.560;13.508;2023-01-30T06:42:25;99875.06;;;2.67;100.00
13734;BME280;43298;52.560;13.508;2023-01-30T06:44:51;99874.94;;;2.72;100.00
13734;BME280;43298;52.560;13.508;2023-01-30T06:47:16;99863.88;;;2.73;100.00
13734;BME280;43298;52.560;13.508;2023-01-30T06:49:42;99875.66;;;2.78;100.00
13734;BME280;43298;52.560;13.508;2023-01-30T06:52:08;99862.84;;;2.80;100.00
13734;BME280;43298;52.560;13.508;2023-01-30T06:54:34;99864.22;;;2.93;100.00
13734;BME280;43298;52.560;13.508;2023-01-30T06:57:00;99862.38;;;2.99;100.00
13734;BME280;43298;52.560;13.508;2023-01-30T06:59:26;99850.38;;;3.01;100.00
13734;BME280;43298;52.560;13.508;2023-01-30T07:01:51;99842.34;;;3.15;100.00
13734;BME280;43298;52.560;13.508;2023-01-30T07:04:17;99848.34;;;3.14;100.00
13734;BME280;43298;52.560;13.508;2023-01-30T07:06:43;99843.97;;;3.19;100.00
13734;BME280;43298;52.560;13.508;2023-01-30T07:09:09;99842.16;;;3.22;100.00
13734;BME280;43298;52.560;13.508;2023-01-30T07:11:35;99847.81;;;3.34;100.00
13734;BME280;43298;52.560;13.508;2023-01-30T07:14:01;99841.78;;;3.36;100.00
13734;BME280;43298;52.560;13.508;2023-01-30T07:16:26;99833.94;;;3.44;100.00
13734;BME280;43298;52.560;13.508;2023-01-30T07:18:56;99822.66;;;3.51;100.00
13734;BME280;43298;52.560;13.508;2023-01-30T07:21:24;99824.19;;;3.56;100.00
13734;BME280;43298;52.560;13.508;2023-01-30T07:23:51;99824.16;;;3.58;100.00
13734;BME280;43298;52.560;13.508;2023-01-30T07:26:17;99815.47;;;3.63;100.00
13734;BME280;43298;52.560;13.508;2023-01-30T07:28:43;99824.56;;;3.73;100.00
13734;BME280;43298;52.560;13.508;2023-01-30T07:31:09;99819.41;;;3.75;100.00
13734;BME280;43298;52.560;13.508;2023-01-30T07:33:35;99818.44;;;3.79;100.00
13734;BME280;43298;52.560;13.508;2023-01-30T07:36:01;99822.53;;;3.84;100.00
13734;BME280;43298;52.560;13.508;2023-01-30T07:38:26;99818.16;;;3.88;100.00
13734;BME280;43298;52.560;13.508;2023-01-30T07:40:52;99819.91;;;3.87;100.00
13734;BME280;43298;52.560;13.508;2023-01-30T07:43:18;99812.19;;;3.89;100.00
13734;BME280;43298;52.560;13.508;2023-01-30T07:45:48;99830.94;;;3.88;100.00
13734;BME280;43298;52.560;13.508;2023-01-30T07:48:18;99830.03;;;3.90;100.00
13734;BME280;43298;52.560;13.508;2023-01-30T07:50:45;99833.38;;;3.92;100.00
13734;BME280;43298;52.560;13.508;2023-01-30T07:53:14;99842.66;;;3.95;100.00
13734;BME280;43298;52.560;13.508;2023-01-30T07:55:40;99857.03;;;3.99;100.00
13734;BME280;43298;52.560;13.508;2023-01-30T07:58:07;99853.63;;;4.00;100.00
13734;BME280;43298;52.560;13.508;2023-01-30T08:00:32;99847.34;;;4.10;100.00
13734;BME280;43298;52.560;13.508;2023-01-30T08:02:59;99848.19;;;4.10;100.00
13734;BME280;43298;52.560;13.508;2023-01-30T08:05:25;99859.25;;;4.11;100.00
13734;BME280;43298;52.560;13.508;2023-01-30T08:07:51;99843.72;;;4.17;100.00
13734;BME280;43298;52.560;13.508;2023-01-30T08:10:19;99850.59;;;4.15;100.00
13734;BME280;43298;52.560;13.508;2023-01-30T08:12:45;99850.50;;;4.18;100.00
13734;BME280;43298;52.560;13.508;2023-01-30T08:15:11;99851.41;;;4.17;100.00
13734;BME280;43298;52.560;13.508;2023-01-30T08:17:37;99842.84;;;4.18;100.00
13734;BME280;43298;52.560;13.508;2023-01-30T08:20:03;99843.56;;;4.21;100.00
13734;BME280;43298;52.560;13.508;2023-01-30T08:22:29;99854.59;;;4.23;100.00
13734;BME280;43298;52.560;13.508;2023-01-30T08:24:55;99839.13;;;4.28;100.00
13734;BME280;43298;52.560;13.508;2023-01-30T08:27:21;99830.66;;;4.26;100.00
13734;BME280;43298;52.560;13.508;2023-01-30T08:29:46;99838.91;;;4.34;100.00
13734;BME280;43298;52.560;13.508;2023-01-30T08:32:12;99826.97;;;4.34;100.00
13734;BME280;43298;52.560;13.508;2023-01-30T08:34:38;99809.16;;;4.31;100.00
13734;BME280;43298;52.560;13.508;2023-01-30T08:37:04;99821.94;;;4.31;100.00
13734;BME280;43298;52.560;13.508;2023-01-30T08:39:30;99837.03;;;4.40;100.00
13734;BME280;43298;52.560;13.508;2023-01-30T08:41:55;99842.09;;;4.42;100.00
13734;BME280;43298;52.560;13.508;2023-01-30T08:44:21;99839.53;;;4.42;100.00
13734;BME280;43298;52.560;13.508;2023-01-30T08:46:47;99845.34;;;4.47;100.00
13734;BME280;43298;52.560;13.508;2023-01-30T08:49:13;99841.06;;;4.47;100.00
13734;BME280;43298;52.560;13.508;2023-01-30T08:51:39;99847.81;;;4.50;100.00
13734;BME280;43298;52.560;13.508;2023-01-30T08:54:05;99845.16;;;4.53;100.00
13734;BME280;43298;52.560;13.508;2023-01-30T08:56:34;99844.41;;;4.49;100.00
13734;BME280;43298;52.560;13.508;2023-01-30T08:58:59;99843.47;;;4.52;100.00
13734;BME280;43298;52.560;13.508;2023-01-30T09:01:25;99837.56;;;4.50;100.00
13734;BME280;43298;52.560;13.508;2023-01-30T09:03:51;99846.72;;;4.57;100.00
13734;BME280;43298;52.560;13.508;2023-01-30T09:06:17;99854.19;;;4.63;100.00
13734;BME280;43298;52.560;13.508;2023-01-30T09:08:43;99842.09;;;4.68;100.00
13734;BME280;43298;52.560;13.508;2023-01-30T09:11:10;99838.84;;;4.63;100.00
13734;BME280;43298;52.560;13.508;2023-01-30T09:13:37;99842.00;;;4.71;100.00
13734;BME280;43298;52.560;13.508;2023-01-30T09:16:09;99835.31;;;4.67;100.00
13734;BME280;43298;52.560;13.508;2023-01-30T09:18:41;99835.38;;;4.65;100.00
13734;BME280;43298;52.560;13.508;2023-01-30T09:21:08;99840.34;;;4.68;100.00
13734;BME280;43298;52.560;13.508;2023-01-30T09:23:34;99846.28;;;4.70;100.00
13734;BME280;43298;52.560;13.508;2023-01-30T09:26:01;99847.72;;;4.79;100.00
13734;BME280;43298;52.560;13.508;2023-01-30T09:28:27;99850.84;;;4.87;100.00
13734;BME280;43298;52.560;13.508;2023-01-30T09:30:57;99853.31;;;4.90;100.00
13734;BME280;43298;52.560;13.508;2023-01-30T09:33:23;99856.63;;;4.93;100.00
13734;BME280;43298;52.560;13.508;2023-01-30T09:35:49;99858.06;;;5.00;100.00
13734;BME280;43298;52.560;13.508;2023-01-30T09:38:16;99859.81;;;5.00;100.00
13734;BME280;43298;52.560;13.508;2023-01-30T09:55:21;99836.66;;;5.27;100.00
13734;BME280;43298;52.560;13.508;2023-01-30T09:57:49;99834.00;;;5.30;100.00
13734;BME280;43298;52.560;13.508;2023-01-30T10:00:33;99825.31;;;5.34;100.00
13734;BME280;43298;52.560;13.508;2023-01-30T10:05:56;99818.47;;;5.35;100.00
13734;BME280;43298;52.560;13.508;2023-01-30T10:11:41;99820.97;;;5.36;100.00
13734;BME280;43298;52.560;13.508;2023-01-30T10:14:37;99817.47;;;5.39;100.00
13734;BME280;43298;52.560;13.508;2023-01-30T10:21:04;99808.38;;;5.53;100.00
13734;BME280;43298;52.560;13.508;2023-01-30T10:26:31;99806.81;;;5.72;100.00
13734;BME280;43298;52.560;13.508;2023-01-30T10:29:06;99812.38;;;5.85;100.00
13734;BME280;43298;52.560;13.508;2023-01-30T10:31:47;99800.56;;;6.02;100.00
13734;BME280;43298;52.560;13.508;2023-01-30T10:34:23;99799.75;;;6.02;100.00
13734;BME280;43298;52.560;13.508;2023-01-30T10:37:05;99797.50;;;5.93;100.00
13734;BME280;43298;52.560;13.508;2023-01-30T10:39:49;99800.63;;;6.01;100.00
13734;BME280;43298;52.560;13.508;2023-01-30T10:42:28;99814.88;;;6.08;100.00
13734;BME280;43298;52.560;13.508;2023-01-30T10:45:12;99804.50;;;6.11;100.00
13734;BME280;43298;52.560;13.508;2023-01-30T10:51:01;99801.66;;;6.18;100.00
13734;BME280;43298;52.560;13.508;2023-01-30T10:53:38;99804.22;;;6.18;100.00
13734;BME280;43298;52.560;13.508;2023-01-30T10:59:52;99812.16;;;6.12;100.00
13734;BME280;43298;52.560;13.508;2023-01-30T11:05:15;99822.69;;;6.05;100.00
13734;BME280;43298;52.560;13.508;2023-01-30T11:07:45;99820.97;;;6.05;100.00
13734;BME280;43298;52.560;13.508;2023-01-30T11:10:25;99807.25;;;6.06;100.00
13734;BME280;43298;52.560;13.508;2023-01-30T11:15:49;99816.44;;;6.12;100.00
13734;BME280;43298;52.560;13.508;2023-01-30T11:18:18;99818.25;;;6.10;100.00
13734;BME280;43298;52.560;13.508;2023-01-30T11:21:06;99822.34;;;6.14;100.00
13734;BME280;43298;52.560;13.508;2023-01-30T11:23:41;99815.13;;;6.23;100.00
13734;BME280;43298;52.560;13.508;2023-01-30T11:26:29;99821.22;;;6.43;100.00
13734;BME280;43298;52.560;13.508;2023-01-30T11:28:55;99828.75;;;6.47;100.00
13734;BME280;43298;52.560;13.508;2023-01-30T11:31:27;99832.22;;;6.46;100.00
13734;BME280;43298;52.560;13.508;2023-01-30T11:34:04;99821.94;;;6.46;100.00
13734;BME280;43298;52.560;13.508;2023-01-30T11:36:33;99827.09;;;6.46;100.00
13734;BME280;43298;52.560;13.508;2023-01-30T11:39:19;99826.97;;;6.49;100.00
13734;BME280;43298;52.560;13.508;2023-01-30T11:44:36;99822.44;;;6.34;100.00
13734;BME280;43298;52.560;13.508;2023-01-30T11:47:18;99829.53;;;6.28;100.00
13734;BME280;43298;52.560;13.508;2023-01-30T11:49:48;99810.28;;;6.16;100.00
13734;BME280;43298;52.560;13.508;2023-01-30T11:52:22;99824.50;;;6.24;100.00
13734;BME280;43298;52.560;13.508;2023-01-30T11:54:49;99816.75;;;6.48;100.00
13734;BME280;43298;52.560;13.508;2023-01-30T11:57:17;99813.75;;;6.58;100.00
13734;BME280;43298;52.560;13.508;2023-01-30T12:04:54;99816.81;;;6.03;100.00
13734;BME280;43298;52.560;13.508;2023-01-30T12:07:27;99800.53;;;5.35;100.00
13734;BME280;43298;52.560;13.508;2023-01-30T12:09:54;99810.66;;;5.38;100.00
13734;BME280;43298;52.560;13.508;2023-01-30T12:12:47;99803.09;;;5.35;100.00
13734;BME280;43298;52.560;13.508;2023-01-30T12:15:27;99787.97;;;5.27;100.00
13734;BME280;43298;52.560;13.508;2023-01-30T12:23:52;99769.84;;;5.55;100.00
13734;BME280;43298;52.560;13.508;2023-01-30T12:26:31;99772.34;;;5.81;100.00
13734;BME280;43298;52.560;13.508;2023-01-30T12:32:13;99772.88;;;5.89;100.00
13734;BME280;43298;52.560;13.508;2023-01-30T12:34:40;99755.63;;;5.92;100.00
13734;BME280;43298;52.560;13.508;2023-01-30T12:52:02;99751.88;;;6.22;100.00
13734;BME280;43298;52.560;13.508;2023-01-30T12:55:07;99759.81;;;6.38;100.00
13734;BME280;43298;52.560;13.508;2023-01-30T12:57:59;99758.44;;;6.50;100.00
13734;BME280;43298;52.560;13.508;2023-01-30T13:06:46;99757.25;;;6.58;100.00
13734;BME280;43298;52.560;13.508;2023-01-30T13:19:25;99773.56;;;6.57;100.00
13734;BME280;43298;52.560;13.508;2023-01-30T13:21:55;99774.19;;;6.62;100.00
13734;BME280;43298;52.560;13.508;2023-01-30T13:26:59;99770.06;;;6.58;100.00
13734;BME280;43298;52.560;13.508;2023-01-30T13:31:58;99758.66;;;6.65;100.00
13734;BME280;43298;52.560;13.508;2023-01-30T13:34:37;99754.06;;;6.73;100.00
13734;BME280;43298;52.560;13.508;2023-01-30T13:37:14;99754.06;;;6.73;100.00
13734;BME280;43298;52.560;13.508;2023-01-30T13:42:14;99744.78;;;6.69;100.00
13734;BME280;43298;52.560;13.508;2023-01-30T13:44:42;99739.91;;;6.63;100.00
13734;BME280;43298;52.560;13.508;2023-01-30T13:53:06;99751.09;;;5.99;100.00
13734;BME280;43298;52.560;13.508;2023-01-30T14:01:11;99737.00;;;5.64;100.00
13734;BME280;43298;52.560;13.508;2023-01-30T14:03:38;99747.94;;;5.46;100.00
13734;BME280;43298;52.560;13.508;2023-01-30T14:08:55;99748.19;;;5.40;100.00
13734;BME280;43298;52.560;13.508;2023-01-30T14:11:47;99752.41;;;5.41;100.00
13734;BME280;43298;52.560;13.508;2023-01-30T14:14:28;99753.38;;;5.39;100.00
13734;BME280;43298;52.560;13.508;2023-01-30T14:17:06;99769.81;;;5.33;100.00
13734;BME280;43298;52.560;13.508;2023-01-30T14:22:50;99759.56;;;5.09;100.00
13734;BME280;43298;52.560;13.508;2023-01-30T14:38:31;99805.69;;;5.09;100.00
13734;BME280;43298;52.560;13.508;2023-01-30T15:05:05;99836.28;;;5.13;100.00
13734;BME280;43298;52.560;13.508;2023-01-30T15:16:32;99839.00;;;4.84;100.00
13734;BME280;43298;52.560;13.508;2023-01-30T15:25:32;99847.13;;;4.71;100.00
13734;BME280;43298;52.560;13.508;2023-01-30T15:28:33;99856.84;;;4.61;100.00
13734;BME280;43298;52.560;13.508;2023-01-30T15:31:22;99853.28;;;4.65;100.00
13734;BME280;43298;52.560;13.508;2023-01-30T15:33:51;99850.56;;;4.70;100.00
13734;BME280;43298;52.560;13.508;2023-01-30T15:36:32;99858.09;;;4.74;100.00
13734;BME280;43298;52.560;13.508;2023-01-30T15:39:17;99860.59;;;4.76;100.00
13734;BME280;43298;52.560;13.508;2023-01-30T15:41:44;99858.00;;;4.77;100.00
13734;BME280;43298;52.560;13.508;2023-01-30T15:47:45;99867.22;;;4.83;100.00
13734;BME280;43298;52.560;13.508;2023-01-30T15:50:14;99874.22;;;4.78;100.00
13734;BME280;43298;52.560;13.508;2023-01-30T15:52:47;99874.13;;;4.81;100.00
13734;BME280;43298;52.560;13.508;2023-01-30T15:55:29;99864.78;;;4.78;100.00
13734;BME280;43298;52.560;13.508;2023-01-30T15:58:00;99878.44;;;4.79;100.00
13734;BME280;43298;52.560;13.508;2023-01-30T16:00:36;99879.25;;;4.81;100.00
13734;BME280;43298;52.560;13.508;2023-01-30T16:03:10;99881.31;;;4.68;100.00
13734;BME280;43298;52.560;13.508;2023-01-30T16:05:50;99869.47;;;4.66;100.00
13734;BME280;43298;52.560;13.508;2023-01-30T16:08:32;99882.44;;;4.61;100.00
13734;BME280;43298;52.560;13.508;2023-01-30T16:10:58;99888.09;;;4.71;100.00
13734;BME280;43298;52.560;13.508;2023-01-30T16:13:26;99889.94;;;4.66;100.00
13734;BME280;43298;52.560;13.508;2023-01-30T16:16:14;99907.00;;;4.67;100.00
13734;BME280;43298;52.560;13.508;2023-01-30T16:18:54;99908.59;;;4.71;100.00
13734;BME280;43298;52.560;13.508;2023-01-30T16:21:37;99889.75;;;4.72;100.00
13734;BME280;43298;52.560;13.508;2023-01-30T16:24:25;99899.47;;;4.62;100.00
13734;BME280;43298;52.560;13.508;2023-01-30T16:26:55;99911.50;;;4.59;100.00
13734;BME280;43298;52.560;13.508;2023-01-30T16:29:24;99917.06;;;4.45;100.00
13734;BME280;43298;52.560;13.508;2023-01-30T16:31:52;99914.91;;;4.32;100.00